Terminal Aerodrome Forecast
Issued by NWS Green Bay, WI

Home | Current Version | Previous Version | Text Only | Print | Product List | Glossary On
Versions: 1 2 3 4 5 6 7 8 9 10 11 12 13 14 15 16 17 18 19 20 21 22 23 24 25 26 27 28 29 30 31 32 33 34 35 36 37 38 39 40 41 42 43 44 45 46 47
000
FTUS43 KGRB 280524
TAFGRB
TAF
KGRB 280524Z 2806/2906 36003KT P6SM BKN018
      TEMPO 2806/2808 5SM BR BKN020
     FM280800 02003KT P6SM SCT012 BKN025
      TEMPO 2808/2812 3SM BR BKN012
     FM281400 03008G15KT P6SM SKC
     FM282300 08004KT P6SM SKC=

USA.gov is the U.S. government's official web portal to all federal, state and local government web resources and services.